Time;durP1;ratioP1;P1;durP2;ratioP2;P2;SDS_P1;SDS_P2;PMS_P1;PMS_P2;Temp;Humidity;BMP_temperature;BMP_pressure;BME280_temperature;BME280_humidity;BME280_pressure;Samples;Min_cycle;Max_cycle;Signal;HPM_P1;HPM_P2
2023/12/16 00:01:12;;;;;;;;;;;18.90;51.30;;;;;;1578710;73;768;-74
2023/12/16 00:03:14;;;;;;;;;;;19.00;51.20;;;;;;1597139;73;771;-74
2023/12/16 00:05:15;;;;;;;;;;;19.00;51.30;;;;;;1587381;73;1168;-75
2023/12/16 00:07:17;;;;;;;;;;;18.90;51.20;;;;;;1581175;73;1331;-74
2023/12/16 00:09:19;;;;;;;;;;;18.90;51.30;;;;;;1581551;73;678;-74
2023/12/16 00:11:21;;;;;;;;;;;18.90;51.40;;;;;;1587356;73;682;-75
2023/12/16 00:13:23;;;;;;;;;;;18.90;51.40;;;;;;1587329;73;733;-73
2023/12/16 00:15:25;;;;;;;;;;;18.90;51.50;;;;;;1577221;74;1109;-75
2023/12/16 00:17:27;;;;;;;;;;;19.00;51.40;;;;;;1579943;73;1933;-75
2023/12/16 00:19:29;;;;;;;;;;;19.00;51.40;;;;;;1574377;74;722;-74
2023/12/16 00:21:31;;;;;;;;;;;18.90;51.50;;;;;;1588259;73;1594;-76
2023/12/16 00:23:33;;;;;;;;;;;18.90;51.50;;;;;;1582404;74;707;-75
2023/12/16 00:25:35;;;;;;;;;;;19.00;51.60;;;;;;1566879;74;1145;-74
2023/12/16 00:27:37;;;;;;;;;;;18.90;51.70;;;;;;1582688;73;627;-73
2023/12/16 00:29:39;;;;;;;;;;;18.90;51.60;;;;;;1584126;73;739;-74
2023/12/16 00:31:41;;;;;;;;;;;18.90;51.80;;;;;;1579432;73;644;-74
2023/12/16 00:33:43;;;;;;;;;;;18.90;51.80;;;;;;1585221;73;891;-75
2023/12/16 00:35:45;;;;;;;;;;;18.90;51.60;;;;;;1588117;73;1553;-76
2023/12/16 00:37:47;;;;;;;;;;;18.90;51.80;;;;;;1589230;73;1943;-74
2023/12/16 00:39:49;;;;;;;;;;;19.00;51.90;;;;;;1583579;73;754;-74
2023/12/16 00:41:51;;;;;;;;;;;18.90;52.00;;;;;;1583915;73;745;-73
2023/12/16 00:43:53;;;;;;;;;;;18.90;51.90;;;;;;1577219;73;776;-74
2023/12/16 00:45:54;;;;;;;;;;;18.90;52.00;;;;;;1579223;73;1128;-73
2023/12/16 00:47:56;;;;;;;;;;;19.00;52.10;;;;;;1583872;73;799;-75
2023/12/16 00:49:58;;;;;;;;;;;19.00;52.10;;;;;;1584998;73;1514;-74
2023/12/16 00:52:01;;;;;;;;;;;18.90;52.10;;;;;;1575754;74;721;-75
2023/12/16 00:54:03;;;;;;;;;;;18.90;52.00;;;;;;1587586;73;743;-75
2023/12/16 00:56:05;;;;;;;;;;;18.90;51.90;;;;;;1573166;73;1161;-73
2023/12/16 00:58:08;;;;;;;;;;;18.90;52.10;;;;;;1583213;73;1908;-74
2023/12/16 01:00:10;;;;;;;;;;;18.90;52.10;;;;;;1585055;73;716;-75
2023/12/16 01:02:12;;;;;;;;;;;18.90;52.30;;;;;;1581803;73;707;-73
2023/12/16 01:04:14;;;;;;;;;;;18.90;52.30;;;;;;1583930;73;1353;-75
2023/12/16 01:06:16;;;;;;;;;;;19.00;52.20;;;;;;1588605;73;1179;-73
2023/12/16 01:08:18;;;;;;;;;;;19.00;52.20;;;;;;1580123;73;703;-74
2023/12/16 01:10:20;;;;;;;;;;;19.00;52.30;;;;;;1581379;74;654;-74
2023/12/16 01:12:22;;;;;;;;;;;19.00;52.40;;;;;;1589606;73;684;-74
2023/12/16 01:14:24;;;;;;;;;;;19.00;52.30;;;;;;1579564;73;720;-73
2023/12/16 01:16:26;;;;;;;;;;;19.00;52.40;;;;;;1575856;74;1139;-76
2023/12/16 01:18:28;;;;;;;;;;;18.90;52.30;;;;;;1573615;74;1946;-74
2023/12/16 01:20:29;;;;;;;;;;;19.00;52.30;;;;;;1586925;73;704;-75
2023/12/16 01:22:32;;;;;;;;;;;18.90;52.50;;;;;;1586581;74;717;-75
2023/12/16 01:24:36;;;;;;;;;;;18.90;52.30;;;;;;1569387;74;718;-73
2023/12/16 01:26:37;;;;;;;;;;;19.00;52.50;;;;;;1572967;74;1175;-73
2023/12/16 01:28:39;;;;;;;;;;;19.00;52.50;;;;;;1583783;73;702;-75
2023/12/16 01:30:41;;;;;;;;;;;19.00;52.30;;;;;;1581701;73;944;-74
2023/12/16 01:32:43;;;;;;;;;;;18.90;52.50;;;;;;1583948;73;1539;-75
2023/12/16 01:34:45;;;;;;;;;;;18.90;52.50;;;;;;1579257;73;734;-73
2023/12/16 01:36:46;;;;;;;;;;;19.00;52.50;;;;;;1594900;73;1088;-73
2023/12/16 01:38:48;;;;;;;;;;;19.00;52.40;;;;;;1580185;73;1945;-74
2023/12/16 01:40:50;;;;;;;;;;;18.90;52.40;;;;;;1583013;74;704;-73
2023/12/16 01:42:54;;;;;;;;;;;18.80;52.40;;;;;;1580210;73;724;-75
2023/12/16 01:44:56;;;;;;;;;;;19.00;52.60;;;;;;1578075;74;978;-75
2023/12/16 01:46:57;;;;;;;;;;;18.90;52.50;;;;;;1586777;73;1531;-73
2023/12/16 01:48:59;;;;;;;;;;;18.90;52.60;;;;;;1579021;73;754;-75
2023/12/16 01:51:01;;;;;;;;;;;19.00;52.60;;;;;;1578695;73;715;-75
2023/12/16 01:53:03;;;;;;;;;;;19.00;52.80;;;;;;1587664;73;752;-72
2023/12/16 01:55:05;;;;;;;;;;;19.00;52.80;;;;;;1580629;73;1166;-73
2023/12/16 01:57:08;;;;;;;;;;;18.90;52.80;;;;;;1579501;74;1919;-72
2023/12/16 01:59:09;;;;;;;;;;;19.00;52.80;;;;;;1576666;74;761;-72
2023/12/16 02:01:11;;;;;;;;;;;18.90;52.80;;;;;;1572713;73;1752;-73
2023/12/16 02:03:14;;;;;;;;;;;19.00;52.80;;;;;;1576304;74;590;-73
2023/12/16 02:05:15;;;;;;;;;;;19.00;52.90;;;;;;1584129;73;1108;-73
2023/12/16 02:07:17;;;;;;;;;;;19.00;53.00;;;;;;1578278;73;595;-75
2023/12/16 02:09:20;;;;;;;;;;;19.00;53.00;;;;;;1585199;73;653;-74
2023/12/16 02:11:21;;;;;;;;;;;19.00;53.00;;;;;;1583067;73;689;-75
2023/12/16 02:13:24;;;;;;;;;;;19.00;53.10;;;;;;1577799;73;1530;-74
2023/12/16 02:15:25;;;;;;;;;;;19.00;53.10;;;;;;1579177;74;1190;-72
2023/12/16 02:17:27;;;;;;;;;;;19.00;53.00;;;;;;1579761;73;1923;-74
2023/12/16 02:19:29;;;;;;;;;;;19.00;53.00;;;;;;1569934;74;809;-74
2023/12/16 02:21:31;;;;;;;;;;;19.00;53.20;;;;;;1585281;73;749;-74
2023/12/16 02:23:33;;;;;;;;;;;19.00;53.10;;;;;;1578300;74;713;-74
2023/12/16 02:25:35;;;;;;;;;;;19.00;53.10;;;;;;1579221;73;1117;-74
2023/12/16 02:27:37;;;;;;;;;;;19.00;53.20;;;;;;1581393;73;1544;-74
2023/12/16 02:29:39;;;;;;;;;;;19.00;53.10;;;;;;1552756;75;728;-74
2023/12/16 02:31:41;;;;;;;;;;;19.00;53.10;;;;;;1583073;74;729;-75
2023/12/16 02:33:43;;;;;;;;;;;19.00;53.20;;;;;;1579526;74;724;-74
2023/12/16 02:35:44;;;;;;;;;;;19.00;53.10;;;;;;1577415;74;1171;-73
2023/12/16 02:37:46;;;;;;;;;;;19.00;53.20;;;;;;1587931;73;1929;-74
2023/12/16 02:39:48;;;;;;;;;;;19.00;53.20;;;;;;1577112;73;758;-73
2023/12/16 02:41:50;;;;;;;;;;;19.00;53.30;;;;;;1587747;73;1335;-74
2023/12/16 02:43:52;;;;;;;;;;;19.00;53.30;;;;;;1579871;74;722;-74
2023/12/16 02:45:54;;;;;;;;;;;19.00;53.20;;;;;;1577851;74;1142;-74
2023/12/16 02:47:56;;;;;;;;;;;19.00;53.30;;;;;;1586498;73;653;-75
2023/12/16 02:49:58;;;;;;;;;;;19.00;53.20;;;;;;1577319;74;797;-74
2023/12/16 02:52:00;;;;;;;;;;;19.00;53.40;;;;;;1579706;74;625;-74
2023/12/16 02:54:01;;;;;;;;;;;19.00;53.30;;;;;;1549478;75;699;-75
2023/12/16 02:56:03;;;;;;;;;;;19.00;53.40;;;;;;1527616;76;1549;-75
2023/12/16 02:58:05;;;;;;;;;;;19.00;53.40;;;;;;1518868;76;1931;-75
2023/12/16 03:00:07;;;;;;;;;;;19.00;53.30;;;;;;1580762;73;683;-75
2023/12/16 03:02:09;;;;;;;;;;;19.00;53.40;;;;;;1573939;73;867;-76
2023/12/16 03:04:11;;;;;;;;;;;19.00;53.50;;;;;;1577977;74;577;-75
2023/12/16 03:06:13;;;;;;;;;;;19.00;53.40;;;;;;1586441;74;1127;-74
2023/12/16 03:08:15;;;;;;;;;;;19.00;53.40;;;;;;1582663;74;672;-74
2023/12/16 03:10:17;;;;;;;;;;;19.00;53.60;;;;;;1593194;73;1336;-74
2023/12/16 03:12:19;;;;;;;;;;;19.00;53.50;;;;;;1576037;74;631;-74
2023/12/16 03:14:21;;;;;;;;;;;19.00;53.60;;;;;;1581139;74;696;-75
2023/12/16 03:16:23;;;;;;;;;;;19.00;53.70;;;;;;1567982;73;1193;-73
2023/12/16 03:18:25;;;;;;;;;;;19.00;53.60;;;;;;1584332;73;1945;-75
2023/12/16 03:20:26;;;;;;;;;;;19.00;53.70;;;;;;1575360;73;585;-73
2023/12/16 03:22:28;;;;;;;;;;;19.00;53.70;;;;;;1579783;74;645;-73
2023/12/16 03:24:30;;;;;;;;;;;19.00;53.70;;;;;;1581705;74;1330;-75
2023/12/16 03:26:32;;;;;;;;;;;19.00;53.70;;;;;;1586458;73;1171;-74
2023/12/16 03:28:34;;;;;;;;;;;19.00;53.70;;;;;;1574833;73;676;-73
2023/12/16 03:30:38;;;;;;;;;;;19.00;53.80;;;;;;1577914;73;779;-73
2023/12/16 03:32:39;;;;;;;;;;;19.00;53.80;;;;;;1580878;73;736;-73
2023/12/16 03:34:41;;;;;;;;;;;19.00;53.80;;;;;;1584822;73;721;-73
2023/12/16 03:36:43;;;;;;;;;;;19.00;53.80;;;;;;1575790;74;1163;-71
2023/12/16 03:38:45;;;;;;;;;;;19.00;53.80;;;;;;1584823;73;1922;-74
2023/12/16 03:40:47;;;;;;;;;;;19.00;53.80;;;;;;1584142;73;638;-74
2023/12/16 03:42:49;;;;;;;;;;;19.00;53.90;;;;;;1575647;73;802;-73
2023/12/16 03:44:51;;;;;;;;;;;19.00;53.90;;;;;;1590422;73;761;-73
2023/12/16 03:46:54;;;;;;;;;;;19.00;53.90;;;;;;1581264;73;1082;-74
2023/12/16 03:48:56;;;;;;;;;;;19.00;53.90;;;;;;1567601;73;1070;-75
2023/12/16 03:50:58;;;;;;;;;;;19.00;54.00;;;;;;1592240;73;702;-75
2023/12/16 03:53:00;;;;;;;;;;;19.00;54.10;;;;;;1586288;73;1395;-74
2023/12/16 03:55:02;;;;;;;;;;;19.00;54.10;;;;;;1580923;73;1160;-73
2023/12/16 03:57:04;;;;;;;;;;;19.00;54.10;;;;;;1579779;73;726;-74
2023/12/16 03:59:06;;;;;;;;;;;19.00;54.00;;;;;;1588082;73;1925;-73
2023/12/16 04:01:13;;;;;;;;;;;19.00;54.00;;;;;;1573526;73;730;-70
2023/12/16 04:03:13;;;;;;;;;;;19.00;54.20;;;;;;1575560;73;967;-74
2023/12/16 04:05:15;;;;;;;;;;;19.00;54.10;;;;;;1585855;73;1147;-75
2023/12/16 04:07:17;;;;;;;;;;;19.00;54.00;;;;;;1581683;73;1482;-75
2023/12/16 04:09:18;;;;;;;;;;;19.00;54.20;;;;;;1584498;73;732;-74
2023/12/16 04:11:20;;;;;;;;;;;19.00;54.20;;;;;;1583315;73;610;-73
2023/12/16 04:13:22;;;;;;;;;;;19.00;54.20;;;;;;1584761;73;597;-72
2023/12/16 04:15:24;;;;;;;;;;;19.00;54.10;;;;;;1584179;73;1133;-74
2023/12/16 04:17:26;;;;;;;;;;;19.00;54.20;;;;;;1584089;73;756;-74
2023/12/16 04:19:28;;;;;;;;;;;19.00;54.10;;;;;;1581456;73;1941;-74
2023/12/16 04:21:32;;;;;;;;;;;19.00;54.10;;;;;;1586498;73;1543;-75
2023/12/16 04:23:33;;;;;;;;;;;19.00;54.20;;;;;;1583728;73;1170;-74
2023/12/16 04:25:35;;;;;;;;;;;19.00;54.20;;;;;;1589707;73;1133;-74
2023/12/16 04:27:37;;;;;;;;;;;19.00;54.20;;;;;;1588088;73;753;-75
2023/12/16 04:29:39;;;;;;;;;;;19.10;54.40;;;;;;1578868;74;702;-76
2023/12/16 04:31:41;;;;;;;;;;;19.00;54.20;;;;;;1578283;73;748;-74
2023/12/16 04:33:43;;;;;;;;;;;19.00;54.20;;;;;;1578097;73;741;-76
2023/12/16 04:35:45;;;;;;;;;;;19.00;54.30;;;;;;1587725;73;1560;-75
2023/12/16 04:37:47;;;;;;;;;;;19.00;54.20;;;;;;1580936;74;660;-74
2023/12/16 04:39:48;;;;;;;;;;;19.00;54.20;;;;;;1583472;74;1950;-73
2023/12/16 04:41:50;;;;;;;;;;;19.00;54.20;;;;;;1589778;73;712;-73
2023/12/16 04:43:53;;;;;;;;;;;19.00;54.30;;;;;;1575206;74;702;-74
2023/12/16 04:45:55;;;;;;;;;;;19.10;54.40;;;;;;1582101;74;1176;-75
2023/12/16 04:47:57;;;;;;;;;;;19.00;54.30;;;;;;1576194;73;667;-73
2023/12/16 04:49:59;;;;;;;;;;;19.00;54.40;;;;;;1595932;73;1476;-73
2023/12/16 04:52:01;;;;;;;;;;;19.00;54.20;;;;;;1581368;73;738;-74
2023/12/16 04:54:02;;;;;;;;;;;19.10;54.50;;;;;;1582274;73;589;-74
2023/12/16 04:56:05;;;;;;;;;;;19.00;54.40;;;;;;1588923;74;1143;-72
2023/12/16 04:58:07;;;;;;;;;;;19.00;54.40;;;;;;1588177;73;1911;-75
2023/12/16 05:00:09;;;;;;;;;;;19.00;54.30;;;;;;1586384;73;668;-75
2023/12/16 05:02:11;;;;;;;;;;;19.00;54.30;;;;;;1578904;74;1533;-72
2023/12/16 05:04:13;;;;;;;;;;;19.00;54.30;;;;;;1580724;73;729;-73
2023/12/16 05:06:14;;;;;;;;;;;19.00;54.40;;;;;;1589969;73;1089;-73
2023/12/16 05:08:17;;;;;;;;;;;19.00;54.40;;;;;;1585998;73;721;-73
2023/12/16 05:10:19;;;;;;;;;;;19.00;54.30;;;;;;1579108;73;728;-75
2023/12/16 05:12:21;;;;;;;;;;;19.00;54.40;;;;;;1581921;73;739;-75
2023/12/16 05:14:23;;;;;;;;;;;19.00;54.40;;;;;;1584524;73;715;-73
2023/12/16 05:16:26;;;;;;;;;;;19.00;54.30;;;;;;1583423;73;1524;-74
2023/12/16 05:18:28;;;;;;;;;;;19.10;54.40;;;;;;1578176;73;1919;-74
2023/12/16 05:20:30;;;;;;;;;;;19.00;54.30;;;;;;1586374;73;711;-76
2023/12/16 05:22:33;;;;;;;;;;;19.00;54.30;;;;;;1585161;74;736;-74
2023/12/16 05:24:35;;;;;;;;;;;19.00;54.40;;;;;;1585640;73;752;-74
2023/12/16 05:26:37;;;;;;;;;;;19.10;54.50;;;;;;1585077;73;1137;-75
2023/12/16 05:28:39;;;;;;;;;;;19.10;54.40;;;;;;1583648;73;744;-74
2023/12/16 05:30:41;;;;;;;;;;;19.10;54.30;;;;;;1583675;73;1335;-76
2023/12/16 05:32:43;;;;;;;;;;;19.00;53.90;;;;;;1583396;73;741;-73
2023/12/16 05:34:45;;;;;;;;;;;19.10;53.80;;;;;;1582539;74;709;-72
2023/12/16 05:36:47;;;;;;;;;;;19.00;53.50;;;;;;1583679;73;1133;-73
2023/12/16 05:38:49;;;;;;;;;;;19.10;53.40;;;;;;1585497;73;1922;-73
2023/12/16 05:40:52;;;;;;;;;;;19.10;53.30;;;;;;1594494;73;712;-72
2023/12/16 05:42:54;;;;;;;;;;;19.00;53.00;;;;;;1587154;73;818;-73
2023/12/16 05:44:56;;;;;;;;;;;19.10;53.00;;;;;;1585848;73;1387;-73
2023/12/16 05:46:58;;;;;;;;;;;19.10;52.90;;;;;;1582658;73;1058;-73
2023/12/16 05:49:00;;;;;;;;;;;19.00;52.80;;;;;;1588949;73;643;-72
2023/12/16 05:51:02;;;;;;;;;;;19.10;52.80;;;;;;1588280;73;700;-75
2023/12/16 05:53:06;;;;;;;;;;;19.10;52.80;;;;;;1590081;73;775;-74
2023/12/16 05:55:07;;;;;;;;;;;19.10;52.70;;;;;;1584402;74;1590;-74
2023/12/16 05:57:09;;;;;;;;;;;19.10;52.60;;;;;;1586911;74;857;-74
2023/12/16 05:59:11;;;;;;;;;;;19.10;52.70;;;;;;1575767;73;1931;-73
2023/12/16 06:01:19;;;;;;;;;;;19.10;52.60;;;;;;1583341;73;683;-73
2023/12/16 06:03:16;;;;;;;;;;;19.10;52.60;;;;;;1582807;73;917;-73
2023/12/16 06:05:18;;;;;;;;;;;19.10;52.60;;;;;;1578946;73;1177;-73
2023/12/16 06:07:20;;;;;;;;;;;19.10;52.60;;;;;;1588629;73;713;-73
2023/12/16 06:09:22;;;;;;;;;;;19.10;52.50;;;;;;1590540;73;846;-72
2023/12/16 06:11:24;;;;;;;;;;;19.10;52.60;;;;;;1582013;73;729;-73
2023/12/16 06:13:26;;;;;;;;;;;19.20;52.70;;;;;;1581904;73;1614;-73
2023/12/16 06:15:28;;;;;;;;;;;19.10;52.60;;;;;;1587215;73;1153;-75
2023/12/16 06:17:30;;;;;;;;;;;19.20;52.40;;;;;;1578442;73;705;-73
2023/12/16 06:19:32;;;;;;;;;;;19.20;52.50;;;;;;1577856;73;1927;-74
2023/12/16 06:21:33;;;;;;;;;;;19.10;52.40;;;;;;1582262;73;705;-74
2023/12/16 06:23:35;;;;;;;;;;;19.20;52.50;;;;;;1591684;73;711;-73
2023/12/16 06:25:37;;;;;;;;;;;19.10;52.40;;;;;;1579431;73;1140;-73
2023/12/16 06:27:40;;;;;;;;;;;19.20;52.40;;;;;;1577728;73;1346;-73
2023/12/16 06:29:42;;;;;;;;;;;19.20;52.50;;;;;;1581754;73;789;-73
2023/12/16 06:31:44;;;;;;;;;;;19.20;52.50;;;;;;1576860;74;768;-72
2023/12/16 06:33:46;;;;;;;;;;;19.20;52.30;;;;;;1584640;73;697;-75
2023/12/16 06:35:48;;;;;;;;;;;19.20;52.40;;;;;;1589202;73;1147;-74
2023/12/16 06:37:50;;;;;;;;;;;19.20;52.40;;;;;;1588814;74;706;-71
2023/12/16 06:39:52;;;;;;;;;;;19.20;52.50;;;;;;1579163;73;1923;-74
2023/12/16 06:41:53;;;;;;;;;;;19.20;52.40;;;;;;1587956;73;1359;-74
2023/12/16 06:43:55;;;;;;;;;;;19.20;52.30;;;;;;1582281;74;637;-73
2023/12/16 06:45:57;;;;;;;;;;;19.20;52.30;;;;;;1588028;73;1151;-73
2023/12/16 06:47:59;;;;;;;;;;;19.20;52.30;;;;;;1583075;74;718;-74
2023/12/16 06:50:01;;;;;;;;;;;19.20;52.40;;;;;;1589128;74;662;-74
2023/12/16 06:52:03;;;;;;;;;;;19.20;52.30;;;;;;1587656;74;754;-74
2023/12/16 06:54:05;;;;;;;;;;;19.20;52.30;;;;;;1556488;75;650;-74
2023/12/16 06:56:08;;;;;;;;;;;19.20;52.20;;;;;;1522779;76;1585;-74
2023/12/16 06:58:10;;;;;;;;;;;19.20;52.30;;;;;;1562299;75;1041;-73
2023/12/16 07:00:13;;;;;;;;;;;19.20;52.30;;;;;;1517015;76;1970;-74
2023/12/16 07:02:14;;;;;;;;;;;19.20;52.30;;;;;;1520601;76;722;-73
2023/12/16 07:04:16;;;;;;;;;;;19.20;52.30;;;;;;1523868;76;710;-73
2023/12/16 07:06:19;;;;;;;;;;;19.20;52.30;;;;;;1529634;76;1208;-74
2023/12/16 07:08:21;;;;;;;;;;;19.20;52.30;;;;;;1528611;76;575;-73
2023/12/16 07:10:23;;;;;;;;;;;19.20;52.30;;;;;;1540889;75;1395;-74
2023/12/16 07:12:26;;;;;;;;;;;19.20;52.60;;;;;;1579279;74;701;-73
2023/12/16 07:14:28;;;;;;;;;;;19.20;52.40;;;;;;1584959;73;743;-73
2023/12/16 07:16:30;;;;;;;;;;;19.30;52.80;;;;;;1585423;73;1232;-73
2023/12/16 07:18:32;;;;;;;;;;;19.30;52.70;;;;;;1579873;74;745;-72
2023/12/16 07:20:34;;;;;;;;;;;19.20;53.20;;;;;;1531217;76;1924;-73
2023/12/16 07:22:36;;;;;;;;;;;19.20;52.70;;;;;;1523723;76;772;-73
2023/12/16 07:24:38;;;;;;;;;;;19.20;52.90;;;;;;1555594;75;1548;-73
2023/12/16 07:26:40;;;;;;;;;;;19.30;52.80;;;;;;1578719;73;1161;-73
2023/12/16 07:28:42;;;;;;;;;;;19.20;53.40;;;;;;1578122;74;709;-73
2023/12/16 07:30:43;;;;;;;;;;;19.30;52.80;;;;;;1574557;74;757;-74
2023/12/16 07:32:45;;;;;;;;;;;19.20;52.80;;;;;;1591852;73;739;-73
2023/12/16 07:34:49;;;;;;;;;;;19.20;53.00;;;;;;1583773;73;724;-72
2023/12/16 07:36:51;;;;;;;;;;;19.20;53.50;;;;;;1589341;73;1567;-73
2023/12/16 07:38:55;;;;;;;;;;;19.20;53.40;;;;;;1583067;73;686;-73
2023/12/16 07:40:56;;;;;;;;;;;19.20;53.10;;;;;;1586134;73;1915;-73
2023/12/16 07:42:58;;;;;;;;;;;19.20;54.20;;;;;;1590147;73;737;-73
2023/12/16 07:45:00;;;;;;;;;;;19.20;54.40;;;;;;1581428;73;1155;-72
2023/12/16 07:47:02;;;;;;;;;;;19.20;54.30;;;;;;1582880;73;685;-73
2023/12/16 07:49:04;;;;;;;;;;;19.20;54.60;;;;;;1587081;73;571;-72
2023/12/16 07:51:06;;;;;;;;;;;19.20;54.20;;;;;;1581120;74;1581;-73
2023/12/16 07:53:08;;;;;;;;;;;19.20;54.70;;;;;;1586992;73;802;-74
2023/12/16 07:55:10;;;;;;;;;;;19.30;55.00;;;;;;1584954;73;1153;-73
2023/12/16 07:57:12;;;;;;;;;;;19.20;55.20;;;;;;1586853;73;678;-77
2023/12/16 07:59:14;;;;;;;;;;;19.30;55.00;;;;;;1577867;73;1930;-73
2023/12/16 08:01:16;;;;;;;;;;;19.20;54.00;;;;;;1588223;73;625;-73
2023/12/16 08:03:18;;;;;;;;;;;19.30;52.70;;;;;;1590546;73;738;-71
2023/12/16 08:05:19;;;;;;;;;;;19.20;51.40;;;;;;1582316;73;1526;-70
2023/12/16 08:07:21;;;;;;;;;;;19.20;49.70;;;;;;1584494;73;742;-71
2023/12/16 08:09:23;;;;;;;;;;;19.10;49.30;;;;;;1577982;74;651;-71
2023/12/16 08:11:25;;;;;;;;;;;19.10;48.90;;;;;;1582670;73;587;-71
2023/12/16 08:13:27;;;;;;;;;;;19.00;48.50;;;;;;1584298;73;718;-71
2023/12/16 08:15:29;;;;;;;;;;;19.00;47.80;;;;;;1580297;73;1129;-71
2023/12/16 08:17:34;;;;;;;;;;;19.00;48.60;;;;;;1579130;73;708;-70
2023/12/16 08:19:36;;;;;;;;;;;18.90;48.10;;;;;;1546014;75;1936;-71
2023/12/16 08:21:38;;;;;;;;;;;18.90;48.30;;;;;;1580475;73;724;-70
2023/12/16 08:23:40;;;;;;;;;;;18.90;47.30;;;;;;1588752;73;609;-71
2023/12/16 08:25:41;;;;;;;;;;;18.90;47.30;;;;;;1582831;73;1150;-71
2023/12/16 08:27:43;;;;;;;;;;;18.90;47.20;;;;;;1581125;73;741;-71
2023/12/16 08:29:45;;;;;;;;;;;18.80;46.90;;;;;;1578524;73;626;-71
2023/12/16 08:31:47;;;;;;;;;;;18.80;46.70;;;;;;1581520;74;731;-70
2023/12/16 08:33:49;;;;;;;;;;;18.80;46.60;;;;;;1575384;74;1567;-71
2023/12/16 08:35:51;;;;;;;;;;;18.70;46.30;;;;;;1584091;73;1180;-70
2023/12/16 08:37:53;;;;;;;;;;;18.80;46.60;;;;;;1582645;74;739;-71
2023/12/16 08:39:55;;;;;;;;;;;18.80;46.40;;;;;;1580215;73;1985;-70
2023/12/16 08:41:57;;;;;;;;;;;18.80;46.10;;;;;;1583269;73;1111;-71
2023/12/16 08:43:59;;;;;;;;;;;18.70;46.40;;;;;;1575047;73;1044;-71
2023/12/16 08:46:01;;;;;;;;;;;18.70;46.30;;;;;;1582020;73;1228;-69
2023/12/16 08:48:03;;;;;;;;;;;18.80;46.30;;;;;;1581328;73;1225;-69
2023/12/16 08:50:06;;;;;;;;;;;18.70;46.80;;;;;;1573194;74;1075;-69
2023/12/16 08:52:08;;;;;;;;;;;18.80;46.10;;;;;;1578270;73;1098;-69
2023/12/16 08:54:10;;;;;;;;;;;18.70;45.90;;;;;;1579556;74;1060;-69
2023/12/16 08:56:12;;;;;;;;;;;18.70;46.10;;;;;;1585193;74;1103;-68
2023/12/16 08:58:14;;;;;;;;;;;18.70;46.20;;;;;;1584803;73;1452;-70
2023/12/16 09:00:15;;;;;;;;;;;18.70;45.90;;;;;;1584512;74;1942;-69
2023/12/16 09:02:17;;;;;;;;;;;18.70;45.80;;;;;;1578494;73;1544;-68
2023/12/16 09:04:19;;;;;;;;;;;18.70;45.60;;;;;;1582645;73;1189;-69
2023/12/16 09:06:21;;;;;;;;;;;18.60;45.40;;;;;;1584788;73;1197;-69
2023/12/16 09:08:23;;;;;;;;;;;18.70;45.70;;;;;;1577272;73;1074;-69
2023/12/16 09:10:25;;;;;;;;;;;18.60;45.90;;;;;;1577703;74;1096;-69
2023/12/16 09:12:27;;;;;;;;;;;18.70;45.40;;;;;;1578249;73;1139;-69
2023/12/16 09:14:29;;;;;;;;;;;18.60;45.10;;;;;;1583662;73;1404;-70
2023/12/16 09:16:31;;;;;;;;;;;18.60;45.00;;;;;;1580008;74;1386;-69
2023/12/16 09:18:33;;;;;;;;;;;18.60;44.90;;;;;;1584726;73;1048;-70
2023/12/16 09:20:37;;;;;;;;;;;18.60;44.60;;;;;;1553887;75;1939;-70
2023/12/16 09:22:39;;;;;;;;;;;18.60;44.90;;;;;;1527109;76;1144;-69
2023/12/16 09:24:41;;;;;;;;;;;18.60;44.50;;;;;;1548256;75;1121;-70
2023/12/16 09:26:44;;;;;;;;;;;18.60;44.60;;;;;;1577377;74;1651;-70
2023/12/16 09:28:46;;;;;;;;;;;18.60;44.50;;;;;;1579148;73;1148;-71
2023/12/16 09:30:48;;;;;;;;;;;18.50;42.50;;;;;;1581706;74;1489;-71
2023/12/16 09:32:52;;;;;;;;;;;18.50;43.10;;;;;;1581212;73;1304;-71
2023/12/16 09:34:56;;;;;;;;;;;18.30;43.90;;;;;;1585065;73;1544;-72
2023/12/16 09:36:58;;;;;;;;;;;18.30;44.70;;;;;;1580116;73;1112;-70
2023/12/16 09:39:06;;;;;;;;;;;18.30;45.20;;;;;;1580746;74;1111;-70
2023/12/16 09:41:08;;;;;;;;;;;18.40;45.40;;;;;;1580524;74;1914;-71
2023/12/16 09:43:12;;;;;;;;;;;18.50;45.70;;;;;;1583301;73;1058;-71
2023/12/16 09:45:16;;;;;;;;;;;18.40;45.40;;;;;;1549779;75;1462;-70
2023/12/16 09:47:18;;;;;;;;;;;18.50;45.10;;;;;;1583441;73;1041;-71
2023/12/16 09:49:20;;;;;;;;;;;18.60;45.20;;;;;;1578529;73;1088;-72
2023/12/16 09:51:22;;;;;;;;;;;18.70;46.30;;;;;;1580136;73;1151;-71
2023/12/16 09:53:24;;;;;;;;;;;18.70;46.30;;;;;;1582373;73;1080;-69
2023/12/16 09:55:26;;;;;;;;;;;18.70;46.30;;;;;;1579687;73;1154;-71
2023/12/16 09:57:28;;;;;;;;;;;18.80;46.00;;;;;;1571964;73;1326;-71
2023/12/16 09:59:30;;;;;;;;;;;18.70;46.70;;;;;;1580334;73;752;-71
2023/12/16 10:01:32;;;;;;;;;;;18.80;46.50;;;;;;1573910;73;1915;-72
2023/12/16 10:03:34;;;;;;;;;;;18.70;44.40;;;;;;1584480;73;748;-69
2023/12/16 10:05:35;;;;;;;;;;;18.70;46.20;;;;;;1576717;73;1150;-69
2023/12/16 10:07:37;;;;;;;;;;;18.70;47.10;;;;;;1577419;73;747;-69
2023/12/16 10:09:39;;;;;;;;;;;18.70;47.30;;;;;;1579548;73;732;-70
2023/12/16 10:11:41;;;;;;;;;;;18.70;47.70;;;;;;1571061;73;1436;-70
2023/12/16 10:14:03;;;;;;;;;;;18.80;47.80;;;;;;1586288;73;735;-70
2023/12/16 10:16:06;;;;;;;;;;;18.80;43.20;;;;;;1577491;74;1263;-69
2023/12/16 10:18:08;;;;;;;;;;;18.70;46.00;;;;;;1550173;75;683;-70
2023/12/16 10:20:10;;;;;;;;;;;18.60;46.50;;;;;;1578570;74;1936;-70
2023/12/16 10:22:15;;;;;;;;;;;18.60;47.50;;;;;;1583284;74;715;-71
2023/12/16 10:24:17;;;;;;;;;;;18.70;47.90;;;;;;1586563;73;726;-71
2023/12/16 10:26:19;;;;;;;;;;;18.80;48.20;;;;;;1584822;74;1410;-71
2023/12/16 10:28:21;;;;;;;;;;;18.70;48.40;;;;;;1577531;73;712;-72
2023/12/16 10:30:23;;;;;;;;;;;18.70;48.50;;;;;;1577662;73;707;-72
2023/12/16 10:32:26;;;;;;;;;;;18.80;48.60;;;;;;1585356;73;841;-72
2023/12/16 10:34:29;;;;;;;;;;;18.70;49.00;;;;;;1581742;73;797;-74
2023/12/16 10:36:34;;;;;;;;;;;18.70;49.10;;;;;;1586809;74;1140;-70
2023/12/16 10:38:35;;;;;;;;;;;18.80;49.40;;;;;;1585303;73;958;-71
2023/12/16 10:40:37;;;;;;;;;;;18.80;49.50;;;;;;1584128;73;1923;-70
2023/12/16 10:42:39;;;;;;;;;;;18.80;49.60;;;;;;1582643;73;825;-70
2023/12/16 10:44:41;;;;;;;;;;;18.90;49.90;;;;;;1581938;73;812;-70
2023/12/16 10:46:45;;;;;;;;;;;18.90;50.20;;;;;;1578555;74;1237;-71
2023/12/16 10:48:50;;;;;;;;;;;18.80;50.20;;;;;;1577661;74;721;-71
2023/12/16 10:50:52;;;;;;;;;;;18.80;50.20;;;;;;1580743;73;756;-71
2023/12/16 10:52:53;;;;;;;;;;;18.90;49.40;;;;;;1582054;73;678;-70
2023/12/16 10:55:00;;;;;;;;;;;18.90;50.00;;;;;;1578834;73;1242;-71
2023/12/16 10:57:01;;;;;;;;;;;18.90;50.90;;;;;;1576003;74;1160;-71
2023/12/16 10:59:05;;;;;;;;;;;18.90;51.30;;;;;;1577186;73;965;-71
2023/12/16 11:01:08;;;;;;;;;;;18.90;51.40;;;;;;1572251;73;1936;-71
2023/12/16 11:03:14;;;;;;;;;;;18.90;52.20;;;;;;1581123;74;1209;-71
2023/12/16 11:05:21;;;;;;;;;;;18.90;52.40;;;;;;1571731;74;1167;-72
2023/12/16 11:07:23;;;;;;;;;;;18.90;53.10;;;;;;1576757;73;1058;-70
2023/12/16 11:09:25;;;;;;;;;;;18.90;52.80;;;;;;1578318;73;1419;-69
2023/12/16 11:11:27;;;;;;;;;;;18.90;54.00;;;;;;1572763;74;739;-71
2023/12/16 11:13:29;;;;;;;;;;;18.90;53.60;;;;;;1578231;73;639;-70
2023/12/16 11:15:34;;;;;;;;;;;18.90;53.80;;;;;;1572548;73;1093;-71
2023/12/16 11:17:43;;;;;;;;;;;19.00;55.00;;;;;;1582245;73;765;-72
2023/12/16 11:19:45;;;;;;;;;;;19.00;55.10;;;;;;1578678;73;756;-73
2023/12/16 11:21:47;;;;;;;;;;;19.00;55.20;;;;;;1575156;74;1939;-73
2023/12/16 11:23:49;;;;;;;;;;;19.00;55.00;;;;;;1571905;74;739;-73
2023/12/16 11:25:51;;;;;;;;;;;19.00;55.10;;;;;;1574003;73;1155;-72
2023/12/16 11:27:53;;;;;;;;;;;19.00;54.70;;;;;;1578369;73;787;-73
2023/12/16 11:29:55;;;;;;;;;;;19.00;54.50;;;;;;1546060;75;717;-74
2023/12/16 11:32:03;;;;;;;;;;;19.00;54.40;;;;;;1581403;74;733;-72
2023/12/16 11:34:06;;;;;;;;;;;19.00;54.30;;;;;;1583850;73;672;-73
2023/12/16 11:36:11;;;;;;;;;;;19.00;54.60;;;;;;1580927;73;1143;-73
2023/12/16 11:38:32;;;;;;;;;;;19.00;54.20;;;;;;1574787;73;655;-72
2023/12/16 11:40:41;;;;;;;;;;;19.00;54.10;;;;;;1579106;73;1934;-71
2023/12/16 11:42:48;;;;;;;;;;;19.00;54.00;;;;;;1582624;73;744;-73
2023/12/16 11:44:53;;;;;;;;;;;19.00;54.00;;;;;;1579562;73;921;-73
2023/12/16 11:46:55;;;;;;;;;;;19.00;54.10;;;;;;1579565;73;1148;-72
2023/12/16 11:48:57;;;;;;;;;;;19.00;54.40;;;;;;1583282;74;1044;-73
2023/12/16 11:50:59;;;;;;;;;;;19.00;54.50;;;;;;1582346;74;1112;-73
2023/12/16 11:53:03;;;;;;;;;;;19.00;54.60;;;;;;1577819;74;1100;-73
2023/12/16 11:55:05;;;;;;;;;;;19.00;54.30;;;;;;1581622;74;1143;-73
2023/12/16 11:57:06;;;;;;;;;;;19.00;54.40;;;;;;1550467;75;1162;-73
2023/12/16 11:59:08;;;;;;;;;;;19.00;54.10;;;;;;1574992;73;1120;-73
2023/12/16 12:01:10;;;;;;;;;;;19.00;54.40;;;;;;1580200;73;1943;-72
2023/12/16 12:03:12;;;;;;;;;;;19.00;54.40;;;;;;1584896;74;1488;-70
2023/12/16 12:05:14;;;;;;;;;;;19.00;54.70;;;;;;1583316;73;1127;-71
2023/12/16 12:07:16;;;;;;;;;;;19.00;54.70;;;;;;1576730;73;1043;-72